PWSweather.com
Personal Weather Stations
Station Observations

SkegnessGB

Lat: 53.147585, Lon: 0.345774

Elevation: 18

Station Type: Fine Offset WH3080

http://www.skegnessweather.info/

High Low Average
Temperature 47.7°F8.7°C 29.3°F-1.5°C 38.3°F3.5°C
Dew Point 43.7°F6.5°C 27.8°F-2.3°C 35.7°F2.1°C
Winds 10.7 mph 17.2 kmh 0.5 mph 0.8 kmh 3.0 mph SW4.8 kmh SW
Wind Gusts 10.1 mph16.3 kmh 1.7 mph2.7 kmh 5.0 mph8.0 kmh
Humidity 100% 75% 91%
Pressure 29.60 in1002.4 mb 29.37 in994.6 mb -
Precipitation 0.12 in3.0 mm - -
Hour Temp Dew Point Humidity Winds Wind Gusts Pressure Precip Precip Rate Daily Precip Total
12:00 AM 36.5°F2.5°C 34.7°F1.5°C 93% 2.0 mph SW3.2 kmh SW 3.4 mph5.5 kmh 29.52 in999.7 mb 0.00 in0.0 mm 0.00 in0.0 mm 0.00 in0.0 mm
12:10 AM 36.0°F2.2°C 34.1°F1.2°C 93% 1.8 mph SW2.9 kmh SW 3.4 mph5.5 kmh 29.52 in999.7 mb 0.00 in0.0 mm 0.00 in0.0 mm 0.00 in0.0 mm
12:20 AM 35.6°F2.0°C 33.8°F1.0°C 93% 3.3 mph WSW5.3 kmh WSW 4.9 mph7.9 kmh 29.52 in999.7 mb 0.00 in0.0 mm 0.00 in0.0 mm 0.00 in0.0 mm
12:30 AM 35.4°F1.9°C 33.6°F0.9°C 93% 3.2 mph S5.1 kmh S 4.2 mph6.8 kmh 29.53 in1000.0 mb 0.00 in0.0 mm 0.00 in0.0 mm 0.00 in0.0 mm
12:40 AM 35.1°F1.7°C 33.2°F0.7°C 93% 1.8 mph SW2.9 kmh SW 3.4 mph5.5 kmh 29.52 in999.7 mb 0.00 in0.0 mm 0.00 in0.0 mm 0.00 in0.0 mm
12:50 AM 34.7°F1.5°C 32.9°F0.5°C 93% 2.7 mph W4.3 kmh W 3.4 mph5.5 kmh 29.53 in1000.0 mb 0.00 in0.0 mm 0.00 in0.0 mm 0.00 in0.0 mm
01:00 AM 34.3°F1.3°C 32.5°F0.3°C 93% 2.5 mph SSW4.0 kmh SSW 3.4 mph5.5 kmh 29.53 in1000.0 mb 0.00 in0.0 mm 0.00 in0.0 mm 0.00 in0.0 mm
01:10 AM 34.0°F1.1°C 32.2°F0.1°C 93% 2.5 mph SW4.0 kmh SW 2.5 mph4.0 kmh 29.53 in1000.0 mb 0.00 in0.0 mm 0.00 in0.0 mm 0.00 in0.0 mm
01:20 AM 33.6°F0.9°C 31.8°F-0.1°C 93% 2.2 mph SW3.5 kmh SW 3.4 mph5.5 kmh 29.53 in1000.0 mb 0.00 in0.0 mm 0.00 in0.0 mm 0.00 in0.0 mm
01:30 AM 33.6°F0.9°C 32.1°F0.1°C 94% 2.7 mph SW4.3 kmh SW 4.9 mph7.9 kmh 29.53 in1000.0 mb 0.00 in0.0 mm 0.00 in0.0 mm 0.00 in0.0 mm
01:40 AM 33.4°F0.8°C 31.9°F-0.1°C 94% 2.2 mph SW3.5 kmh SW 2.5 mph4.0 kmh 29.54 in1000.3 mb 0.00 in0.0 mm 0.00 in0.0 mm 0.00 in0.0 mm
01:50 AM 33.1°F0.6°C 31.5°F-0.3°C 94% 1.7 mph SW2.7 kmh SW 2.5 mph4.0 kmh 29.55 in1000.7 mb 0.00 in0.0 mm 0.00 in0.0 mm 0.00 in0.0 mm
02:00 AM 32.9°F0.5°C 31.4°F-0.3°C 94% 1.5 mph SW2.4 kmh SW 2.5 mph4.0 kmh 29.54 in1000.3 mb 0.00 in0.0 mm 0.00 in0.0 mm 0.00 in0.0 mm
02:10 AM 32.5°F0.3°C 31.0°F-0.6°C 94% 1.7 mph S2.7 kmh S 4.2 mph6.8 kmh 29.54 in1000.3 mb 0.00 in0.0 mm 0.00 in0.0 mm 0.00 in0.0 mm
02:20 AM 32.5°F0.3°C 31.0°F-0.6°C 94% 2.8 mph SSW4.5 kmh SSW 3.4 mph5.5 kmh 29.55 in1000.7 mb 0.00 in0.0 mm 0.00 in0.0 mm 0.00 in0.0 mm
02:30 AM 32.4°F0.2°C 30.8°F-0.7°C 94% 2.2 mph SW3.5 kmh SW 2.5 mph4.0 kmh 29.55 in1000.7 mb 0.00 in0.0 mm 0.00 in0.0 mm 0.00 in0.0 mm
02:40 AM 32.5°F0.3°C 31.0°F-0.6°C 94% 1.6 mph S2.6 kmh S 2.5 mph4.0 kmh 29.56 in1001.0 mb 0.00 in0.0 mm 0.00 in0.0 mm 0.00 in0.0 mm
02:50 AM 32.4°F0.2°C 30.8°F-0.7°C 94% 2.4 mph SW3.9 kmh SW 3.4 mph5.5 kmh 29.56 in1001.0 mb 0.00 in0.0 mm 0.00 in0.0 mm 0.00 in0.0 mm
03:00 AM 32.2°F0.1°C 30.6°F-0.8°C 94% 1.2 mph WSW1.9 kmh WSW 1.7 mph2.7 kmh 29.56 in1001.0 mb 0.00 in0.0 mm 0.00 in0.0 mm 0.00 in0.0 mm
03:10 AM 31.8°F-0.1°C 30.3°F-0.9°C 94% 1.4 mph SW2.3 kmh SW 2.5 mph4.0 kmh 29.56 in1001.0 mb 0.00 in0.0 mm 0.00 in0.0 mm 0.00 in0.0 mm
03:20 AM 31.5°F-0.3°C 29.9°F-1.2°C 94% 1.2 mph S1.9 kmh S 2.5 mph4.0 kmh 29.56 in1001.0 mb 0.00 in0.0 mm 0.00 in0.0 mm 0.00 in0.0 mm
03:30 AM 31.5°F-0.3°C 29.9°F-1.2°C 94% 0.9 mph W1.4 kmh W 2.5 mph4.0 kmh 29.56 in1001.0 mb 0.00 in0.0 mm 0.00 in0.0 mm 0.00 in0.0 mm
03:40 AM 31.1°F-0.5°C 29.6°F-1.3°C 94% 0.7 mph SW1.1 kmh SW 1.7 mph2.7 kmh 29.57 in1001.4 mb 0.00 in0.0 mm 0.00 in0.0 mm 0.00 in0.0 mm
03:50 AM 30.9°F-0.6°C 29.4°F-1.4°C 94% 1.2 mph SW1.9 kmh SW 2.5 mph4.0 kmh 29.56 in1001.0 mb 0.00 in0.0 mm 0.00 in0.0 mm 0.00 in0.0 mm
04:00 AM 30.6°F-0.8°C 29.0°F-1.7°C 94% 0.5 mph WSW0.8 kmh WSW 1.7 mph2.7 kmh 29.57 in1001.4 mb 0.00 in0.0 mm 0.00 in0.0 mm 0.00 in0.0 mm
04:10 AM 30.7°F-0.7°C 29.2°F-1.6°C 94% 0.5 mph WSW0.8 kmh WSW 1.7 mph2.7 kmh 29.57 in1001.4 mb 0.00 in0.0 mm 0.00 in0.0 mm 0.00 in0.0 mm
04:20 AM 30.7°F-0.7°C 29.2°F-1.6°C 94% 2.2 mph SW3.5 kmh SW 2.5 mph4.0 kmh 29.57 in1001.4 mb 0.00 in0.0 mm 0.00 in0.0 mm 0.00 in0.0 mm
04:30 AM 30.7°F-0.7°C 29.2°F-1.6°C 94% 2.9 mph S4.7 kmh S 3.4 mph5.5 kmh 29.57 in1001.4 mb 0.00 in0.0 mm 0.00 in0.0 mm 0.00 in0.0 mm
04:40 AM 30.6°F-0.8°C 29.0°F-1.7°C 94% 2.9 mph SSW4.7 kmh SSW 3.4 mph5.5 kmh 29.57 in1001.4 mb 0.00 in0.0 mm 0.00 in0.0 mm 0.00 in0.0 mm
04:50 AM 30.6°F-0.8°C 29.0°F-1.7°C 94% 3.2 mph S5.1 kmh S 3.4 mph5.5 kmh 29.57 in1001.4 mb 0.00 in0.0 mm 0.00 in0.0 mm 0.00 in0.0 mm
05:00 AM 30.6°F-0.8°C 29.0°F-1.7°C 94% 2.8 mph S4.5 kmh S 3.4 mph5.5 kmh 29.57 in1001.4 mb 0.00 in0.0 mm 0.00 in0.0 mm 0.00 in0.0 mm
05:10 AM 30.4°F-0.9°C 28.9°F-1.7°C 94% 1.5 mph S2.4 kmh S 3.4 mph5.5 kmh 29.57 in1001.4 mb 0.00 in0.0 mm 0.00 in0.0 mm 0.00 in0.0 mm
05:20 AM 30.4°F-0.9°C 28.9°F-1.7°C 94% 1.4 mph S2.3 kmh S 2.5 mph4.0 kmh 29.57 in1001.4 mb 0.00 in0.0 mm 0.00 in0.0 mm 0.00 in0.0 mm
05:30 AM 30.2°F-1.0°C 28.7°F-1.8°C 94% 1.2 mph WSW1.9 kmh WSW 2.5 mph4.0 kmh 29.57 in1001.4 mb 0.00 in0.0 mm 0.00 in0.0 mm 0.00 in0.0 mm
05:40 AM 30.0°F-1.1°C 28.5°F-1.9°C 94% 1.1 mph SW1.8 kmh SW 1.7 mph2.7 kmh 29.58 in1001.7 mb 0.00 in0.0 mm 0.00 in0.0 mm 0.00 in0.0 mm
05:50 AM 29.8°F-1.2°C 28.3°F-2.1°C 94% 1.1 mph WSW1.8 kmh WSW 1.7 mph2.7 kmh 29.58 in1001.7 mb 0.00 in0.0 mm 0.00 in0.0 mm 0.00 in0.0 mm
06:00 AM 29.8°F-1.2°C 28.3°F-2.1°C 94% 1.2 mph WSW1.9 kmh WSW 2.5 mph4.0 kmh 29.58 in1001.7 mb 0.00 in0.0 mm 0.00 in0.0 mm 0.00 in0.0 mm
06:10 AM 29.7°F-1.3°C 28.1°F-2.2°C 94% 1.3 mph SW2.1 kmh SW 1.7 mph2.7 kmh 29.58 in1001.7 mb 0.00 in0.0 mm 0.00 in0.0 mm 0.00 in0.0 mm
06:20 AM 29.5°F-1.4°C 28.0°F-2.2°C 94% 1.6 mph SW2.6 kmh SW 2.5 mph4.0 kmh 29.58 in1001.7 mb 0.00 in0.0 mm 0.00 in0.0 mm 0.00 in0.0 mm
06:30 AM 29.3°F-1.5°C 27.8°F-2.3°C 94% 0.9 mph SW1.4 kmh SW 1.7 mph2.7 kmh 29.58 in1001.7 mb 0.00 in0.0 mm 0.00 in0.0 mm 0.00 in0.0 mm
06:40 AM 29.3°F-1.5°C 27.8°F-2.3°C 94% 1.1 mph SW1.8 kmh SW 2.5 mph4.0 kmh 29.58 in1001.7 mb 0.00 in0.0 mm 0.00 in0.0 mm 0.00 in0.0 mm
06:50 AM 29.3°F-1.5°C 27.8°F-2.3°C 94% 0.9 mph WSW1.4 kmh WSW 2.5 mph4.0 kmh 29.59 in1002.0 mb 0.00 in0.0 mm 0.00 in0.0 mm 0.00 in0.0 mm
07:00 AM 29.7°F-1.3°C 28.4°F-2.0°C 95% 1.9 mph SW3.1 kmh SW 3.4 mph5.5 kmh 29.58 in1001.7 mb 0.00 in0.0 mm 0.00 in0.0 mm 0.00 in0.0 mm
07:10 AM 30.0°F-1.1°C 28.8°F-1.8°C 95% 3.4 mph WSW5.5 kmh WSW 4.2 mph6.8 kmh 29.59 in1002.0 mb 0.00 in0.0 mm 0.00 in0.0 mm 0.00 in0.0 mm
07:20 AM 30.7°F-0.7°C 29.5°F-1.4°C 95% 3.3 mph W5.3 kmh W 5.9 mph9.5 kmh 29.59 in1002.0 mb 0.00 in0.0 mm 0.00 in0.0 mm 0.00 in0.0 mm
07:30 AM 31.1°F-0.5°C 29.8°F-1.2°C 95% 4.6 mph S7.4 kmh S 5.9 mph9.5 kmh 29.59 in1002.0 mb 0.00 in0.0 mm 0.00 in0.0 mm 0.00 in0.0 mm
07:40 AM 31.3°F-0.4°C 30.3°F-0.9°C 96% 3.9 mph SW6.3 kmh SW 4.2 mph6.8 kmh 29.60 in1002.4 mb 0.00 in0.0 mm 0.00 in0.0 mm 0.00 in0.0 mm
07:50 AM 31.8°F-0.1°C 30.8°F-0.7°C 96% 2.6 mph WSW4.2 kmh WSW 3.4 mph5.5 kmh 29.59 in1002.0 mb 0.00 in0.0 mm 0.00 in0.0 mm 0.00 in0.0 mm
08:00 AM 32.2°F0.1°C 31.2°F-0.4°C 96% 2.4 mph SSW3.9 kmh SSW 4.2 mph6.8 kmh 29.59 in1002.0 mb 0.00 in0.0 mm 0.00 in0.0 mm 0.00 in0.0 mm
08:10 AM 32.5°F0.3°C 31.5°F-0.3°C 96% 3.9 mph W6.3 kmh W 4.9 mph7.9 kmh 29.60 in1002.4 mb 0.00 in0.0 mm 0.00 in0.0 mm 0.00 in0.0 mm
08:20 AM 33.1°F0.6°C 32.3°F0.2°C 97% 5.2 mph S8.4 kmh S 5.9 mph9.5 kmh 29.60 in1002.4 mb 0.00 in0.0 mm 0.00 in0.0 mm 0.00 in0.0 mm
08:30 AM 33.4°F0.8°C 32.7°F0.4°C 97% 5.1 mph SSW8.2 kmh SSW 4.9 mph7.9 kmh 29.60 in1002.4 mb 0.00 in0.0 mm 0.00 in0.0 mm 0.00 in0.0 mm
08:40 AM 34.0°F1.1°C 33.2°F0.7°C 97% 3.7 mph S6.0 kmh S 4.9 mph7.9 kmh 29.60 in1002.4 mb 0.00 in0.0 mm 0.00 in0.0 mm 0.00 in0.0 mm
08:50 AM 34.5°F1.4°C 34.0°F1.1°C 98% 3.0 mph SW4.8 kmh SW 4.2 mph6.8 kmh 29.60 in1002.4 mb 0.00 in0.0 mm 0.00 in0.0 mm 0.00 in0.0 mm
09:00 AM 35.1°F1.7°C 34.6°F1.4°C 98% 2.6 mph S4.2 kmh S 4.2 mph6.8 kmh 29.60 in1002.4 mb 0.00 in0.0 mm 0.00 in0.0 mm 0.00 in0.0 mm
09:10 AM 35.4°F1.9°C 34.9°F1.6°C 98% 3.6 mph SE5.8 kmh SE 5.9 mph9.5 kmh 29.60 in1002.4 mb 0.00 in0.0 mm 0.00 in0.0 mm 0.00 in0.0 mm
09:20 AM 36.1°F2.3°C 35.9°F2.2°C 99% 4.2 mph S6.8 kmh S 5.9 mph9.5 kmh 29.59 in1002.0 mb 0.00 in0.0 mm 0.00 in0.0 mm 0.00 in0.0 mm
09:30 AM 36.7°F2.6°C 36.4°F2.4°C 99% 3.9 mph WSW6.3 kmh WSW 4.2 mph6.8 kmh 29.59 in1002.0 mb 0.00 in0.0 mm 0.00 in0.0 mm 0.00 in0.0 mm
09:40 AM 37.8°F3.2°C 37.5°F3.1°C 99% 3.5 mph S5.6 kmh S 4.9 mph7.9 kmh 29.59 in1002.0 mb 0.00 in0.0 mm 0.00 in0.0 mm 0.00 in0.0 mm
09:50 AM 39.9°F4.4°C 39.9°F4.4°C 100% 2.4 mph SW3.9 kmh SW 4.2 mph6.8 kmh 29.59 in1002.0 mb 0.00 in0.0 mm 0.00 in0.0 mm 0.00 in0.0 mm
10:00 AM 44.2°F6.8°C 43.2°F6.2°C 96% 1.6 mph SSW2.6 kmh SSW 4.2 mph6.8 kmh 29.59 in1002.0 mb 0.00 in0.0 mm 0.00 in0.0 mm 0.00 in0.0 mm
10:10 AM 45.9°F7.7°C 43.7°F6.5°C 92% 2.4 mph S3.9 kmh S 4.2 mph6.8 kmh 29.59 in1002.0 mb 0.00 in0.0 mm 0.00 in0.0 mm 0.00 in0.0 mm
10:20 AM 46.0°F7.8°C 41.5°F5.3°C 84% 3.9 mph S6.3 kmh S 5.9 mph9.5 kmh 29.59 in1002.0 mb 0.00 in0.0 mm 0.00 in0.0 mm 0.00 in0.0 mm
10:30 AM 44.2°F6.8°C 38.8°F3.8°C 81% 7.7 mph S12.4 kmh S 8.4 mph13.5 kmh 29.59 in1002.0 mb 0.00 in0.0 mm 0.00 in0.0 mm 0.00 in0.0 mm
10:40 AM 43.7°F6.5°C 37.6°F3.1°C 79% 7.5 mph SSE12.1 kmh SSE 9.1 mph14.6 kmh 29.59 in1002.0 mb 0.00 in0.0 mm 0.00 in0.0 mm 0.00 in0.0 mm
10:50 AM 43.7°F6.5°C 37.9°F3.3°C 80% 7.4 mph S11.9 kmh S 7.6 mph12.2 kmh 29.60 in1002.4 mb 0.00 in0.0 mm 0.00 in0.0 mm 0.00 in0.0 mm
11:00 AM 42.8°F6.0°C 37.1°F2.8°C 80% 10.7 mph S17.2 kmh S 10.1 mph16.3 kmh 29.60 in1002.4 mb 0.00 in0.0 mm 0.00 in0.0 mm 0.00 in0.0 mm
11:10 AM 43.9°F6.6°C 38.4°F3.6°C 81% 8.2 mph SW13.2 kmh SW 7.6 mph12.2 kmh 29.60 in1002.4 mb 0.00 in0.0 mm 0.00 in0.0 mm 0.00 in0.0 mm
11:20 AM 45.3°F7.4°C 39.8°F4.3°C 81% 8.0 mph S12.9 kmh S 10.1 mph16.3 kmh 29.60 in1002.4 mb 0.00 in0.0 mm 0.00 in0.0 mm 0.00 in0.0 mm
11:30 AM 46.4°F8.0°C 39.6°F4.2°C 77% 7.7 mph S12.4 kmh S 8.4 mph13.5 kmh 29.60 in1002.4 mb 0.00 in0.0 mm 0.00 in0.0 mm 0.00 in0.0 mm
11:40 AM 47.3°F8.5°C 40.1°F4.5°C 76% 9.2 mph S14.8 kmh S 10.1 mph16.3 kmh 29.60 in1002.4 mb 0.00 in0.0 mm 0.00 in0.0 mm 0.00 in0.0 mm
11:50 AM 46.9°F8.3°C 39.8°F4.3°C 76% 9.5 mph S15.3 kmh S 9.1 mph14.6 kmh 29.60 in1002.4 mb 0.00 in0.0 mm 0.00 in0.0 mm 0.00 in0.0 mm
12:00 PM 47.1°F8.4°C 39.6°F4.2°C 75% 9.2 mph S14.8 kmh S 10.1 mph16.3 kmh 29.59 in1002.0 mb 0.00 in0.0 mm 0.00 in0.0 mm 0.00 in0.0 mm
12:10 PM 47.7°F8.7°C 40.1°F4.5°C 75% 7.2 mph S11.6 kmh S 7.6 mph12.2 kmh 29.59 in1002.0 mb 0.00 in0.0 mm 0.00 in0.0 mm 0.00 in0.0 mm
12:20 PM 46.9°F8.3°C 39.4°F4.1°C 75% 9.5 mph SSE15.3 kmh SSE 10.1 mph16.3 kmh 29.59 in1002.0 mb 0.00 in0.0 mm 0.00 in0.0 mm 0.00 in0.0 mm
12:30 PM 46.0°F7.8°C 38.9°F3.8°C 76% 9.5 mph SE15.3 kmh SE 10.1 mph16.3 kmh 29.59 in1002.0 mb 0.00 in0.0 mm 0.00 in0.0 mm 0.00 in0.0 mm
12:40 PM 45.5°F7.5°C 39.0°F3.9°C 78% 8.2 mph S13.2 kmh S 9.1 mph14.6 kmh 29.58 in1001.7 mb 0.00 in0.0 mm 0.00 in0.0 mm 0.00 in0.0 mm
12:50 PM 45.9°F7.7°C 39.4°F4.1°C 78% 8.6 mph S13.8 kmh S 8.4 mph13.5 kmh 29.58 in1001.7 mb 0.00 in0.0 mm 0.00 in0.0 mm 0.00 in0.0 mm
01:00 PM 46.8°F8.2°C 39.9°F4.4°C 77% 5.8 mph SSW9.3 kmh SSW 7.6 mph12.2 kmh 29.57 in1001.4 mb 0.00 in0.0 mm 0.00 in0.0 mm 0.00 in0.0 mm
01:10 PM 47.1°F8.4°C 39.6°F4.2°C 75% 4.4 mph SSW7.1 kmh SSW 7.6 mph12.2 kmh 29.57 in1001.4 mb 0.00 in0.0 mm 0.00 in0.0 mm 0.00 in0.0 mm
01:20 PM 47.1°F8.4°C 39.6°F4.2°C 75% 6.3 mph S10.1 kmh S 8.4 mph13.5 kmh 29.57 in1001.4 mb 0.00 in0.0 mm 0.00 in0.0 mm 0.00 in0.0 mm
01:30 PM 47.1°F8.4°C 39.6°F4.2°C 75% 5.9 mph SE9.5 kmh SE 9.1 mph14.6 kmh 29.57 in1001.4 mb 0.00 in0.0 mm 0.00 in0.0 mm 0.00 in0.0 mm
01:40 PM 46.9°F8.3°C 39.8°F4.3°C 76% 4.3 mph S6.9 kmh S 4.9 mph7.9 kmh 29.57 in1001.4 mb 0.00 in0.0 mm 0.00 in0.0 mm 0.00 in0.0 mm
01:50 PM 46.2°F7.9°C 39.1°F3.9°C 76% 2.2 mph NW3.5 kmh NW 4.9 mph7.9 kmh 29.57 in1001.4 mb 0.00 in0.0 mm 0.00 in0.0 mm 0.00 in0.0 mm
02:00 PM 45.5°F7.5°C 38.7°F3.7°C 77% 2.6 mph N4.2 kmh N 4.2 mph6.8 kmh 29.57 in1001.4 mb 0.00 in0.0 mm 0.00 in0.0 mm 0.00 in0.0 mm
02:10 PM 45.0°F7.2°C 38.2°F3.4°C 77% 2.0 mph NNW3.2 kmh NNW 3.4 mph5.5 kmh 29.57 in1001.4 mb 0.00 in0.0 mm 0.00 in0.0 mm 0.00 in0.0 mm
02:20 PM 44.1°F6.7°C 38.0°F3.3°C 79% 2.1 mph NW3.4 kmh NW 3.4 mph5.5 kmh 29.56 in1001.0 mb 0.00 in0.0 mm 0.00 in0.0 mm 0.00 in0.0 mm
02:30 PM 44.1°F6.7°C 38.3°F3.5°C 80% 1.7 mph NNW2.7 kmh NNW 2.5 mph4.0 kmh 29.56 in1001.0 mb 0.00 in0.0 mm 0.00 in0.0 mm 0.00 in0.0 mm
02:40 PM 43.5°F6.4°C 37.4°F3.0°C 79% 2.4 mph N3.9 kmh N 3.4 mph5.5 kmh 29.56 in1001.0 mb 0.00 in0.0 mm 0.00 in0.0 mm 0.00 in0.0 mm
02:50 PM 42.6°F5.9°C 37.8°F3.2°C 83% 3.3 mph NNW5.3 kmh NNW 4.9 mph7.9 kmh 29.56 in1001.0 mb 0.00 in0.0 mm 0.00 in0.0 mm 0.00 in0.0 mm
03:00 PM 42.3°F5.7°C 38.1°F3.4°C 85% 2.6 mph NNW4.2 kmh NNW 3.4 mph5.5 kmh 29.55 in1000.7 mb 0.00 in0.0 mm 0.00 in0.0 mm 0.00 in0.0 mm
03:10 PM 42.4°F5.8°C 38.2°F3.4°C 85% 3.1 mph N5.0 kmh N 4.2 mph6.8 kmh 29.55 in1000.7 mb 0.00 in0.0 mm 0.00 in0.0 mm 0.00 in0.0 mm
03:20 PM 42.1°F5.6°C 37.9°F3.3°C 85% 2.3 mph NNW3.7 kmh NNW 4.2 mph6.8 kmh 29.55 in1000.7 mb 0.00 in0.0 mm 0.00 in0.0 mm 0.00 in0.0 mm
03:30 PM 41.7°F5.4°C 37.5°F3.1°C 85% 2.8 mph N4.5 kmh N 4.2 mph6.8 kmh 29.54 in1000.3 mb 0.00 in0.0 mm 0.00 in0.0 mm 0.00 in0.0 mm
03:40 PM 41.5°F5.3°C 37.7°F3.2°C 86% 1.9 mph NNW3.1 kmh NNW 2.5 mph4.0 kmh 29.54 in1000.3 mb 0.00 in0.0 mm 0.00 in0.0 mm 0.00 in0.0 mm
03:50 PM 41.4°F5.2°C 37.8°F3.2°C 87% 1.6 mph NNW2.6 kmh NNW 2.5 mph4.0 kmh 29.53 in1000.0 mb 0.00 in0.0 mm 0.00 in0.0 mm 0.00 in0.0 mm
04:00 PM 41.5°F5.3°C 38.0°F3.3°C 87% 1.3 mph NW2.1 kmh NW 2.5 mph4.0 kmh 29.53 in1000.0 mb 0.00 in0.0 mm 0.00 in0.0 mm 0.00 in0.0 mm
04:10 PM 41.5°F5.3°C 38.0°F3.3°C 87% 1.9 mph W3.1 kmh W 3.4 mph5.5 kmh 29.53 in1000.0 mb 0.00 in0.0 mm 0.00 in0.0 mm 0.00 in0.0 mm
04:20 PM 41.4°F5.2°C 37.8°F3.2°C 87% 1.7 mph N2.7 kmh N 3.4 mph5.5 kmh 29.53 in1000.0 mb 0.00 in0.0 mm 0.00 in0.0 mm 0.00 in0.0 mm
04:30 PM 41.2°F5.1°C 37.6°F3.1°C 87% 1.5 mph NNE2.4 kmh NNE 3.4 mph5.5 kmh 29.53 in1000.0 mb 0.00 in0.0 mm 0.00 in0.0 mm 0.00 in0.0 mm
04:40 PM 41.4°F5.2°C 38.1°F3.4°C 88% 1.2 mph N1.9 kmh N 2.5 mph4.0 kmh 29.52 in999.7 mb 0.00 in0.0 mm 0.00 in0.0 mm 0.00 in0.0 mm
04:50 PM 41.2°F5.1°C 37.9°F3.3°C 88% 1.0 mph N1.6 kmh N 2.5 mph4.0 kmh 29.52 in999.7 mb 0.00 in0.0 mm 0.00 in0.0 mm 0.00 in0.0 mm
05:00 PM 41.4°F5.2°C 38.1°F3.4°C 88% 0.8 mph N1.3 kmh N 1.7 mph2.7 kmh 29.52 in999.7 mb 0.00 in0.0 mm 0.00 in0.0 mm 0.00 in0.0 mm
05:10 PM 41.7°F5.4°C 38.4°F3.6°C 88% 1.2 mph N1.9 kmh N 1.7 mph2.7 kmh 29.52 in999.7 mb 0.00 in0.0 mm 0.00 in0.0 mm 0.00 in0.0 mm
05:20 PM 42.1°F5.6°C 38.8°F3.8°C 88% 1.9 mph NW3.1 kmh NW 3.4 mph5.5 kmh 29.52 in999.7 mb 0.00 in0.0 mm 0.00 in0.0 mm 0.00 in0.0 mm
05:30 PM 41.9°F5.5°C 38.3°F3.5°C 87% 1.7 mph NNE2.7 kmh NNE 3.4 mph5.5 kmh 29.52 in999.7 mb 0.00 in0.0 mm 0.00 in0.0 mm 0.00 in0.0 mm
05:40 PM 42.1°F5.6°C 38.5°F3.6°C 87% 3.6 mph SSE5.8 kmh SSE 4.9 mph7.9 kmh 29.52 in999.7 mb 0.00 in0.0 mm 0.00 in0.0 mm 0.00 in0.0 mm
05:50 PM 42.4°F5.8°C 38.8°F3.8°C 87% 3.2 mph WNW5.1 kmh WNW 4.9 mph7.9 kmh 29.52 in999.7 mb 0.00 in0.0 mm 0.00 in0.0 mm 0.00 in0.0 mm
06:00 PM 42.4°F5.8°C 39.1°F3.9°C 88% 3.1 mph ESE5.0 kmh ESE 5.9 mph9.5 kmh 29.52 in999.7 mb 0.00 in0.0 mm 0.00 in0.0 mm 0.00 in0.0 mm
06:10 PM 42.1°F5.6°C 39.1°F3.9°C 89% 2.0 mph SSE3.2 kmh SSE 7.6 mph12.2 kmh 29.52 in999.7 mb 0.01 in0.3 mm 0.06 in1.5 mm 0.01 in0.3 mm
06:20 PM 41.7°F5.4°C 39.0°F3.9°C 90% 1.8 mph S2.9 kmh S 4.9 mph7.9 kmh 29.51 in999.3 mb 0.01 in0.3 mm 0.00 in0.0 mm 0.01 in0.3 mm
06:30 PM 41.5°F5.3°C 39.1°F3.9°C 91% 3.2 mph S5.1 kmh S 5.9 mph9.5 kmh 29.52 in999.7 mb 0.01 in0.3 mm 0.00 in0.0 mm 0.01 in0.3 mm
06:40 PM 41.5°F5.3°C 38.8°F3.8°C 90% 2.2 mph N3.5 kmh N 4.9 mph7.9 kmh 29.51 in999.3 mb 0.01 in0.3 mm 0.00 in0.0 mm 0.01 in0.3 mm
06:50 PM 41.5°F5.3°C 38.5°F3.6°C 89% 2.7 mph ENE4.3 kmh ENE 4.2 mph6.8 kmh 29.51 in999.3 mb 0.01 in0.3 mm 0.00 in0.0 mm 0.01 in0.3 mm
07:00 PM 41.4°F5.2°C 38.4°F3.6°C 89% 2.5 mph NNE4.0 kmh NNE 4.9 mph7.9 kmh 29.50 in999.0 mb 0.01 in0.3 mm 0.00 in0.0 mm 0.01 in0.3 mm
07:10 PM 41.2°F5.1°C 38.2°F3.4°C 89% 1.9 mph WSW3.1 kmh WSW 4.9 mph7.9 kmh 29.50 in999.0 mb 0.00 in0.0 mm 0.00 in0.0 mm 0.01 in0.3 mm
07:20 PM 40.6°F4.8°C 37.9°F3.3°C 90% 1.7 mph N2.7 kmh N 3.4 mph5.5 kmh 29.50 in999.0 mb 0.00 in0.0 mm 0.00 in0.0 mm 0.01 in0.3 mm
07:30 PM 40.5°F4.7°C 38.3°F3.5°C 92% 2.7 mph SW4.3 kmh SW 6.6 mph10.6 kmh 29.49 in998.6 mb 0.00 in0.0 mm 0.00 in0.0 mm 0.01 in0.3 mm
07:40 PM 40.5°F4.7°C 38.3°F3.5°C 92% 3.0 mph WSW4.8 kmh WSW 3.4 mph5.5 kmh 29.49 in998.6 mb 0.00 in0.0 mm 0.00 in0.0 mm 0.01 in0.3 mm
07:50 PM 40.3°F4.6°C 38.4°F3.6°C 93% 2.9 mph WNW4.7 kmh WNW 6.6 mph10.6 kmh 29.49 in998.6 mb 0.00 in0.0 mm 0.00 in0.0 mm 0.01 in0.3 mm
08:00 PM 40.1°F4.5°C 38.2°F3.4°C 93% 2.2 mph N3.5 kmh N 4.2 mph6.8 kmh 29.48 in998.3 mb 0.01 in0.3 mm 0.01 in0.3 mm 0.02 in0.5 mm
08:10 PM 39.9°F4.4°C 38.3°F3.5°C 94% 2.3 mph ENE3.7 kmh ENE 4.2 mph6.8 kmh 29.48 in998.3 mb 0.01 in0.3 mm 0.00 in0.0 mm 0.02 in0.5 mm
08:20 PM 39.7°F4.3°C 38.2°F3.4°C 94% 3.5 mph S5.6 kmh S 4.9 mph7.9 kmh 29.47 in998.0 mb 0.01 in0.3 mm 0.00 in0.0 mm 0.02 in0.5 mm
08:30 PM 39.6°F4.2°C 38.2°F3.4°C 95% 2.6 mph NNW4.2 kmh NNW 3.4 mph5.5 kmh 29.47 in998.0 mb 0.02 in0.5 mm 0.06 in1.5 mm 0.04 in1.0 mm
08:40 PM 39.6°F4.2°C 38.2°F3.4°C 95% 4.6 mph NW7.4 kmh NW 7.6 mph12.2 kmh 29.46 in997.6 mb 0.02 in0.5 mm 0.00 in0.0 mm 0.04 in1.0 mm
08:50 PM 39.6°F4.2°C 38.5°F3.6°C 96% 3.5 mph W5.6 kmh W 4.9 mph7.9 kmh 29.46 in997.6 mb 0.02 in0.5 mm 0.00 in0.0 mm 0.04 in1.0 mm
09:00 PM 39.6°F4.2°C 38.5°F3.6°C 96% 3.8 mph SSW6.1 kmh SSW 5.9 mph9.5 kmh 29.46 in997.6 mb 0.02 in0.5 mm 0.00 in0.0 mm 0.05 in1.3 mm
09:10 PM 39.7°F4.3°C 39.0°F3.9°C 97% 2.6 mph SE4.2 kmh SE 2.5 mph4.0 kmh 29.45 in997.3 mb 0.02 in0.5 mm 0.00 in0.0 mm 0.05 in1.3 mm
09:20 PM 39.7°F4.3°C 39.0°F3.9°C 97% 4.5 mph SW7.2 kmh SW 6.6 mph10.6 kmh 29.45 in997.3 mb 0.02 in0.5 mm 0.00 in0.0 mm 0.05 in1.3 mm
09:30 PM 39.9°F4.4°C 39.4°F4.1°C 98% 3.3 mph NE5.3 kmh NE 4.9 mph7.9 kmh 29.44 in997.0 mb 0.01 in0.3 mm 0.00 in0.0 mm 0.05 in1.3 mm
09:40 PM 39.9°F4.4°C 39.4°F4.1°C 98% 3.4 mph NNW5.5 kmh NNW 6.6 mph10.6 kmh 29.44 in997.0 mb 0.01 in0.3 mm 0.00 in0.0 mm 0.05 in1.3 mm
09:50 PM 39.9°F4.4°C 39.4°F4.1°C 98% 4.0 mph NW6.4 kmh NW 5.9 mph9.5 kmh 29.43 in996.6 mb 0.02 in0.5 mm 0.06 in1.5 mm 0.06 in1.5 mm
10:00 PM 39.9°F4.4°C 39.7°F4.3°C 99% 3.4 mph NNW5.5 kmh NNW 6.6 mph10.6 kmh 29.42 in996.3 mb 0.01 in0.3 mm 0.00 in0.0 mm 0.06 in1.5 mm
10:10 PM 39.9°F4.4°C 39.7°F4.3°C 99% 4.2 mph W6.8 kmh W 5.9 mph9.5 kmh 29.42 in996.3 mb 0.02 in0.5 mm 0.06 in1.5 mm 0.07 in1.8 mm
10:20 PM 40.1°F4.5°C 39.8°F4.3°C 99% 4.2 mph N6.8 kmh N 6.6 mph10.6 kmh 29.41 in995.9 mb 0.02 in0.5 mm 0.00 in0.0 mm 0.07 in1.8 mm
10:30 PM 40.1°F4.5°C 40.1°F4.5°C 100% 3.8 mph W6.1 kmh W 6.6 mph10.6 kmh 29.41 in995.9 mb 0.04 in1.0 mm 0.12 in3.0 mm 0.08 in2.0 mm
10:40 PM 40.3°F4.6°C 40.3°F4.6°C 100% 4.6 mph SW7.4 kmh SW 7.6 mph12.2 kmh 29.40 in995.6 mb 0.04 in1.0 mm 0.00 in0.0 mm 0.08 in2.0 mm
10:50 PM 40.3°F4.6°C 40.3°F4.6°C 100% 5.3 mph N8.5 kmh N 7.6 mph12.2 kmh 29.40 in995.6 mb 0.04 in1.0 mm 0.00 in0.0 mm 0.09 in2.3 mm
11:00 PM 40.1°F4.5°C 40.1°F4.5°C 100% 4.5 mph SSW7.2 kmh SSW 6.6 mph10.6 kmh 29.39 in995.3 mb 0.04 in1.0 mm 0.00 in0.0 mm 0.09 in2.3 mm
11:10 PM 40.1°F4.5°C 40.1°F4.5°C 100% 3.8 mph NW6.1 kmh NW 4.2 mph6.8 kmh 29.38 in994.9 mb 0.04 in1.0 mm 0.00 in0.0 mm 0.11 in2.8 mm
11:20 PM 40.1°F4.5°C 40.1°F4.5°C 100% 3.4 mph N5.5 kmh N 4.9 mph7.9 kmh 29.38 in994.9 mb 0.04 in1.0 mm 0.00 in0.0 mm 0.11 in2.8 mm
11:30 PM 40.1°F4.5°C 40.1°F4.5°C 100% 3.6 mph N5.8 kmh N 5.9 mph9.5 kmh 29.38 in994.9 mb 0.02 in0.5 mm 0.00 in0.0 mm 0.11 in2.8 mm
11:40 PM 40.3°F4.6°C 40.3°F4.6°C 100% 3.8 mph NW6.1 kmh NW 6.6 mph10.6 kmh 29.37 in994.6 mb 0.04 in1.0 mm 0.12 in3.0 mm 0.12 in3.0 mm
11:50 PM 40.3°F4.6°C 40.3°F4.6°C 100% 3.5 mph SSW5.6 kmh SSW 4.2 mph6.8 kmh 29.37 in994.6 mb 0.02 in0.5 mm 0.00 in0.0 mm 0.12 in3.0 mm